sensor_id;sensor_type;location;lat;lon;timestamp;P1;durP1;ratioP1;P2;durP2;ratioP2
18520;SDS011;9390;51.244;6.982;2023-02-02T00:01:08;20.48;;;4.15;;
18520;SDS011;9390;51.244;6.982;2023-02-02T00:03:40;22.92;;;4.68;;
18520;SDS011;9390;51.244;6.982;2023-02-02T00:06:12;18.75;;;3.88;;
18520;SDS011;9390;51.244;6.982;2023-02-02T00:08:44;16.27;;;3.90;;
18520;SDS011;9390;51.244;6.982;2023-02-02T00:11:16;25.70;;;4.53;;
18520;SDS011;9390;51.244;6.982;2023-02-02T00:13:48;20.63;;;5.32;;
18520;SDS011;9390;51.244;6.982;2023-02-02T00:16:33;20.05;;;4.38;;
18520;SDS011;9390;51.244;6.982;2023-02-02T00:19:12;21.65;;;4.47;;
18520;SDS011;9390;51.244;6.982;2023-02-02T00:21:46;19.70;;;4.57;;
18520;SDS011;9390;51.244;6.982;2023-02-02T00:24:18;23.33;;;4.88;;
18520;SDS011;9390;51.244;6.982;2023-02-02T00:26:53;26.48;;;5.00;;
18520;SDS011;9390;51.244;6.982;2023-02-02T00:29:26;19.73;;;5.63;;
18520;SDS011;9390;51.244;6.982;2023-02-02T00:31:59;20.45;;;4.68;;
18520;SDS011;9390;51.244;6.982;2023-02-02T00:34:30;18.48;;;3.90;;
18520;SDS011;9390;51.244;6.982;2023-02-02T00:37:03;28.00;;;4.38;;
18520;SDS011;9390;51.244;6.982;2023-02-02T00:39:34;23.50;;;5.22;;
18520;SDS011;9390;51.244;6.982;2023-02-02T00:42:06;21.02;;;4.63;;
18520;SDS011;9390;51.244;6.982;2023-02-02T00:44:38;30.52;;;5.10;;
18520;SDS011;9390;51.244;6.982;2023-02-02T00:47:28;27.52;;;5.70;;
18520;SDS011;9390;51.244;6.982;2023-02-02T00:49:59;26.67;;;5.28;;
18520;SDS011;9390;51.244;6.982;2023-02-02T00:52:32;25.60;;;5.15;;
18520;SDS011;9390;51.244;6.982;2023-02-02T00:55:04;23.35;;;5.03;;
18520;SDS011;9390;51.244;6.982;2023-02-02T00:57:36;24.85;;;5.18;;
18520;SDS011;9390;51.244;6.982;2023-02-02T01:00:10;24.15;;;5.22;;
18520;SDS011;9390;51.244;6.982;2023-02-02T01:02:43;21.30;;;5.35;;
18520;SDS011;9390;51.244;6.982;2023-02-02T01:05:14;19.13;;;5.45;;
18520;SDS011;9390;51.244;6.982;2023-02-02T01:07:47;22.27;;;5.88;;
18520;SDS011;9390;51.244;6.982;2023-02-02T01:10:19;33.58;;;5.63;;
18520;SDS011;9390;51.244;6.982;2023-02-02T01:12:50;27.25;;;6.85;;
18520;SDS011;9390;51.244;6.982;2023-02-02T01:15:21;30.23;;;6.57;;
18520;SDS011;9390;51.244;6.982;2023-02-02T01:17:53;27.25;;;6.43;;
18520;SDS011;9390;51.244;6.982;2023-02-02T01:20:24;26.73;;;5.53;;
18520;SDS011;9390;51.244;6.982;2023-02-02T01:22:57;27.08;;;6.45;;
18520;SDS011;9390;51.244;6.982;2023-02-02T01:25:28;27.92;;;6.50;;
18520;SDS011;9390;51.244;6.982;2023-02-02T01:28:01;25.25;;;5.72;;
18520;SDS011;9390;51.244;6.982;2023-02-02T01:30:32;21.77;;;5.63;;
18520;SDS011;9390;51.244;6.982;2023-02-02T01:33:04;19.30;;;5.03;;
18520;SDS011;9390;51.244;6.982;2023-02-02T01:35:35;27.35;;;5.97;;
18520;SDS011;9390;51.244;6.982;2023-02-02T01:38:08;19.10;;;5.35;;
18520;SDS011;9390;51.244;6.982;2023-02-02T01:40:43;30.60;;;6.05;;
18520;SDS011;9390;51.244;6.982;2023-02-02T01:43:19;26.55;;;5.85;;
18520;SDS011;9390;51.244;6.982;2023-02-02T01:45:53;22.92;;;5.97;;
18520;SDS011;9390;51.244;6.982;2023-02-02T01:48:26;26.98;;;5.55;;
18520;SDS011;9390;51.244;6.982;2023-02-02T01:51:00;29.85;;;5.38;;
18520;SDS011;9390;51.244;6.982;2023-02-02T01:53:34;25.30;;;5.13;;
18520;SDS011;9390;51.244;6.982;2023-02-02T01:56:06;28.50;;;5.93;;
18520;SDS011;9390;51.244;6.982;2023-02-02T02:01:10;26.10;;;5.60;;
18520;SDS011;9390;51.244;6.982;2023-02-02T02:03:42;26.00;;;5.93;;
18520;SDS011;9390;51.244;6.982;2023-02-02T02:06:14;32.85;;;5.75;;
18520;SDS011;9390;51.244;6.982;2023-02-02T02:11:22;23.85;;;5.03;;
18520;SDS011;9390;51.244;6.982;2023-02-02T02:13:54;26.23;;;6.18;;
18520;SDS011;9390;51.244;6.982;2023-02-02T02:16:49;21.25;;;4.80;;
18520;SDS011;9390;51.244;6.982;2023-02-02T02:19:32;22.48;;;5.97;;
18520;SDS011;9390;51.244;6.982;2023-02-02T02:22:31;23.35;;;5.13;;
18520;SDS011;9390;51.244;6.982;2023-02-02T02:25:31;17.98;;;4.80;;
18520;SDS011;9390;51.244;6.982;2023-02-02T02:28:45;25.27;;;5.47;;
18520;SDS011;9390;51.244;6.982;2023-02-02T02:34:23;29.77;;;5.70;;
18520;SDS011;9390;51.244;6.982;2023-02-02T02:36:59;20.85;;;5.20;;
18520;SDS011;9390;51.244;6.982;2023-02-02T02:39:37;24.58;;;5.30;;
18520;SDS011;9390;51.244;6.982;2023-02-02T02:44:42;24.13;;;5.72;;
18520;SDS011;9390;51.244;6.982;2023-02-02T02:47:14;25.00;;;6.07;;
18520;SDS011;9390;51.244;6.982;2023-02-02T02:49:47;21.73;;;5.60;;
18520;SDS011;9390;51.244;6.982;2023-02-02T02:52:19;29.73;;;6.03;;
18520;SDS011;9390;51.244;6.982;2023-02-02T02:54:51;24.75;;;5.47;;
18520;SDS011;9390;51.244;6.982;2023-02-02T03:00:00;21.10;;;5.43;;
18520;SDS011;9390;51.244;6.982;2023-02-02T03:02:37;25.00;;;6.00;;
18520;SDS011;9390;51.244;6.982;2023-02-02T03:05:18;29.02;;;6.63;;
18520;SDS011;9390;51.244;6.982;2023-02-02T03:07:54;29.42;;;7.03;;
18520;SDS011;9390;51.244;6.982;2023-02-02T03:10:32;27.83;;;5.85;;
18520;SDS011;9390;51.244;6.982;2023-02-02T03:13:05;26.83;;;6.47;;
18520;SDS011;9390;51.244;6.982;2023-02-02T03:18:10;27.33;;;5.75;;
18520;SDS011;9390;51.244;6.982;2023-02-02T03:20:44;25.77;;;6.22;;
18520;SDS011;9390;51.244;6.982;2023-02-02T03:23:16;21.88;;;5.45;;
18520;SDS011;9390;51.244;6.982;2023-02-02T03:25:47;27.15;;;5.78;;
18520;SDS011;9390;51.244;6.982;2023-02-02T03:28:19;27.98;;;6.47;;
18520;SDS011;9390;51.244;6.982;2023-02-02T03:30:51;37.65;;;6.95;;
18520;SDS011;9390;51.244;6.982;2023-02-02T03:33:23;25.08;;;5.60;;
18520;SDS011;9390;51.244;6.982;2023-02-02T03:35:56;32.53;;;6.10;;
18520;SDS011;9390;51.244;6.982;2023-02-02T03:38:27;32.75;;;6.40;;
18520;SDS011;9390;51.244;6.982;2023-02-02T03:40:59;30.25;;;6.63;;
18520;SDS011;9390;51.244;6.982;2023-02-02T03:43:30;24.40;;;5.53;;
18520;SDS011;9390;51.244;6.982;2023-02-02T03:46:02;35.95;;;7.15;;
18520;SDS011;9390;51.244;6.982;2023-02-02T03:48:35;35.25;;;6.38;;
18520;SDS011;9390;51.244;6.982;2023-02-02T03:51:09;26.50;;;6.30;;
18520;SDS011;9390;51.244;6.982;2023-02-02T03:53:42;33.67;;;6.97;;
18520;SDS011;9390;51.244;6.982;2023-02-02T03:56:16;40.17;;;7.30;;
18520;SDS011;9390;51.244;6.982;2023-02-02T03:58:48;40.92;;;7.95;;
18520;SDS011;9390;51.244;6.982;2023-02-02T04:01:24;22.27;;;6.22;;
18520;SDS011;9390;51.244;6.982;2023-02-02T04:03:57;36.10;;;7.47;;
18520;SDS011;9390;51.244;6.982;2023-02-02T04:06:30;32.30;;;6.78;;
18520;SDS011;9390;51.244;6.982;2023-02-02T04:09:02;42.25;;;7.50;;
18520;SDS011;9390;51.244;6.982;2023-02-02T04:11:33;34.42;;;6.95;;
18520;SDS011;9390;51.244;6.982;2023-02-02T04:14:05;39.53;;;6.10;;
18520;SDS011;9390;51.244;6.982;2023-02-02T04:16:36;32.03;;;7.60;;
18520;SDS011;9390;51.244;6.982;2023-02-02T04:19:07;38.33;;;6.68;;
18520;SDS011;9390;51.244;6.982;2023-02-02T04:21:40;34.55;;;6.82;;
18520;SDS011;9390;51.244;6.982;2023-02-02T04:24:12;30.10;;;6.50;;
18520;SDS011;9390;51.244;6.982;2023-02-02T04:26:44;40.42;;;7.40;;
18520;SDS011;9390;51.244;6.982;2023-02-02T04:29:16;35.42;;;7.53;;
18520;SDS011;9390;51.244;6.982;2023-02-02T04:31:48;38.65;;;7.88;;
18520;SDS011;9390;51.244;6.982;2023-02-02T04:34:19;27.08;;;6.75;;
18520;SDS011;9390;51.244;6.982;2023-02-02T04:36:52;36.40;;;7.75;;
18520;SDS011;9390;51.244;6.982;2023-02-02T04:39:25;23.63;;;6.55;;
18520;SDS011;9390;51.244;6.982;2023-02-02T04:41:57;34.38;;;7.50;;
18520;SDS011;9390;51.244;6.982;2023-02-02T04:44:28;34.88;;;7.65;;
18520;SDS011;9390;51.244;6.982;2023-02-02T04:47:00;26.50;;;7.97;;
18520;SDS011;9390;51.244;6.982;2023-02-02T04:49:32;36.75;;;7.03;;
18520;SDS011;9390;51.244;6.982;2023-02-02T04:52:05;39.67;;;7.82;;
18520;SDS011;9390;51.244;6.982;2023-02-02T04:54:37;30.30;;;8.45;;
18520;SDS011;9390;51.244;6.982;2023-02-02T04:57:09;40.92;;;7.95;;
18520;SDS011;9390;51.244;6.982;2023-02-02T04:59:41;49.95;;;8.48;;
18520;SDS011;9390;51.244;6.982;2023-02-02T05:02:12;35.40;;;8.02;;
18520;SDS011;9390;51.244;6.982;2023-02-02T05:04:44;27.75;;;7.22;;
18520;SDS011;9390;51.244;6.982;2023-02-02T05:07:18;38.38;;;8.57;;
18520;SDS011;9390;51.244;6.982;2023-02-02T05:12:21;34.33;;;8.13;;
18520;SDS011;9390;51.244;6.982;2023-02-02T05:14:53;46.55;;;7.60;;
18520;SDS011;9390;51.244;6.982;2023-02-02T05:17:25;34.83;;;7.20;;
18520;SDS011;9390;51.244;6.982;2023-02-02T05:19:56;36.75;;;8.55;;
18520;SDS011;9390;51.244;6.982;2023-02-02T05:22:30;49.50;;;7.78;;
18520;SDS011;9390;51.244;6.982;2023-02-02T05:27:33;32.78;;;7.47;;
18520;SDS011;9390;51.244;6.982;2023-02-02T05:30:05;42.55;;;7.47;;
18520;SDS011;9390;51.244;6.982;2023-02-02T05:32:38;34.58;;;7.47;;
18520;SDS011;9390;51.244;6.982;2023-02-02T05:35:09;36.83;;;8.07;;
18520;SDS011;9390;51.244;6.982;2023-02-02T05:37:43;42.28;;;8.95;;
18520;SDS011;9390;51.244;6.982;2023-02-02T05:42:46;29.50;;;6.78;;
18520;SDS011;9390;51.244;6.982;2023-02-02T05:45:18;26.83;;;7.43;;
18520;SDS011;9390;51.244;6.982;2023-02-02T05:47:52;36.10;;;9.13;;
18520;SDS011;9390;51.244;6.982;2023-02-02T05:50:24;36.75;;;7.40;;
18520;SDS011;9390;51.244;6.982;2023-02-02T05:52:58;35.50;;;8.02;;
18520;SDS011;9390;51.244;6.982;2023-02-02T06:02:04;40.33;;;8.95;;
18520;SDS011;9390;51.244;6.982;2023-02-02T06:04:41;41.47;;;7.93;;
18520;SDS011;9390;51.244;6.982;2023-02-02T06:11:03;33.30;;;8.02;;
18520;SDS011;9390;51.244;6.982;2023-02-02T06:13:38;36.08;;;9.45;;
18520;SDS011;9390;51.244;6.982;2023-02-02T06:16:10;36.38;;;9.80;;
18520;SDS011;9390;51.244;6.982;2023-02-02T06:18:42;36.75;;;9.07;;
18520;SDS011;9390;51.244;6.982;2023-02-02T06:21:14;39.25;;;9.00;;
18520;SDS011;9390;51.244;6.982;2023-02-02T06:23:45;44.10;;;9.63;;
18520;SDS011;9390;51.244;6.982;2023-02-02T06:26:19;43.72;;;8.93;;
18520;SDS011;9390;51.244;6.982;2023-02-02T06:28:51;30.67;;;9.48;;
18520;SDS011;9390;51.244;6.982;2023-02-02T06:33:55;34.20;;;8.93;;
18520;SDS011;9390;51.244;6.982;2023-02-02T06:36:28;35.08;;;9.10;;
18520;SDS011;9390;51.244;6.982;2023-02-02T06:38:59;40.13;;;10.07;;
18520;SDS011;9390;51.244;6.982;2023-02-02T06:41:35;30.15;;;9.13;;
18520;SDS011;9390;51.244;6.982;2023-02-02T06:44:06;38.47;;;9.02;;
18520;SDS011;9390;51.244;6.982;2023-02-02T06:46:38;48.40;;;11.57;;
18520;SDS011;9390;51.244;6.982;2023-02-02T06:49:10;41.45;;;10.35;;
18520;SDS011;9390;51.244;6.982;2023-02-02T06:51:41;46.58;;;12.35;;
18520;SDS011;9390;51.244;6.982;2023-02-02T06:54:13;32.80;;;10.95;;
18520;SDS011;9390;51.244;6.982;2023-02-02T06:56:46;39.75;;;11.15;;
18520;SDS011;9390;51.244;6.982;2023-02-02T06:59:17;36.05;;;10.77;;
18520;SDS011;9390;51.244;6.982;2023-02-02T07:01:49;47.22;;;11.85;;
18520;SDS011;9390;51.244;6.982;2023-02-02T07:04:21;41.78;;;14.15;;
18520;SDS011;9390;51.244;6.982;2023-02-02T07:06:52;40.88;;;12.25;;
18520;SDS011;9390;51.244;6.982;2023-02-02T07:09:24;45.25;;;11.88;;
18520;SDS011;9390;51.244;6.982;2023-02-02T07:11:57;31.85;;;12.50;;
18520;SDS011;9390;51.244;6.982;2023-02-02T07:14:28;40.08;;;12.27;;
18520;SDS011;9390;51.244;6.982;2023-02-02T07:17:00;37.95;;;12.65;;
18520;SDS011;9390;51.244;6.982;2023-02-02T07:19:31;42.33;;;13.90;;
18520;SDS011;9390;51.244;6.982;2023-02-02T07:22:03;49.83;;;12.73;;
18520;SDS011;9390;51.244;6.982;2023-02-02T07:24:35;35.83;;;11.93;;
18520;SDS011;9390;51.244;6.982;2023-02-02T07:27:08;38.15;;;14.25;;
18520;SDS011;9390;51.244;6.982;2023-02-02T07:29:40;48.40;;;13.32;;
18520;SDS011;9390;51.244;6.982;2023-02-02T07:32:11;41.70;;;13.15;;
18520;SDS011;9390;51.244;6.982;2023-02-02T07:34:43;32.35;;;12.13;;
18520;SDS011;9390;51.244;6.982;2023-02-02T07:37:14;45.58;;;14.15;;
18520;SDS011;9390;51.244;6.982;2023-02-02T07:39:46;41.40;;;13.25;;
18520;SDS011;9390;51.244;6.982;2023-02-02T07:42:19;46.03;;;12.02;;
18520;SDS011;9390;51.244;6.982;2023-02-02T07:44:50;36.90;;;13.93;;
18520;SDS011;9390;51.244;6.982;2023-02-02T07:47:22;50.33;;;13.82;;
18520;SDS011;9390;51.244;6.982;2023-02-02T07:49:54;36.22;;;12.25;;
18520;SDS011;9390;51.244;6.982;2023-02-02T07:52:27;43.88;;;11.60;;
18520;SDS011;9390;51.244;6.982;2023-02-02T07:54:59;38.80;;;12.80;;
18520;SDS011;9390;51.244;6.982;2023-02-02T07:57:32;50.63;;;13.93;;
18520;SDS011;9390;51.244;6.982;2023-02-02T08:00:04;47.35;;;14.10;;
18520;SDS011;9390;51.244;6.982;2023-02-02T08:02:36;37.38;;;12.48;;
18520;SDS011;9390;51.244;6.982;2023-02-02T08:05:08;41.42;;;13.23;;
18520;SDS011;9390;51.244;6.982;2023-02-02T08:07:40;42.17;;;13.02;;
18520;SDS011;9390;51.244;6.982;2023-02-02T08:10:12;36.28;;;13.98;;
18520;SDS011;9390;51.244;6.982;2023-02-02T08:12:45;46.60;;;13.80;;
18520;SDS011;9390;51.244;6.982;2023-02-02T08:15:16;46.00;;;13.50;;
18520;SDS011;9390;51.244;6.982;2023-02-02T08:17:48;53.33;;;15.13;;
18520;SDS011;9390;51.244;6.982;2023-02-02T08:20:19;57.28;;;16.75;;
18520;SDS011;9390;51.244;6.982;2023-02-02T08:22:51;55.10;;;16.67;;
18520;SDS011;9390;51.244;6.982;2023-02-02T08:25:22;46.67;;;14.23;;
18520;SDS011;9390;51.244;6.982;2023-02-02T08:27:55;51.50;;;13.98;;
18520;SDS011;9390;51.244;6.982;2023-02-02T08:30:30;41.03;;;15.45;;
18520;SDS011;9390;51.244;6.982;2023-02-02T08:33:02;49.00;;;14.93;;
18520;SDS011;9390;51.244;6.982;2023-02-02T08:35:33;43.40;;;15.68;;
18520;SDS011;9390;51.244;6.982;2023-02-02T08:38:05;56.20;;;16.17;;
18520;SDS011;9390;51.244;6.982;2023-02-02T08:40:37;53.60;;;16.92;;
18520;SDS011;9390;51.244;6.982;2023-02-02T08:43:10;45.53;;;16.23;;
18520;SDS011;9390;51.244;6.982;2023-02-02T08:45:41;46.97;;;14.90;;
18520;SDS011;9390;51.244;6.982;2023-02-02T08:48:14;38.72;;;13.82;;
18520;SDS011;9390;51.244;6.982;2023-02-02T08:50:51;42.45;;;15.73;;
18520;SDS011;9390;51.244;6.982;2023-02-02T08:53:24;37.50;;;14.57;;
18520;SDS011;9390;51.244;6.982;2023-02-02T08:55:57;43.63;;;15.15;;
18520;SDS011;9390;51.244;6.982;2023-02-02T08:58:31;50.65;;;14.00;;
18520;SDS011;9390;51.244;6.982;2023-02-02T09:01:03;46.70;;;14.95;;
18520;SDS011;9390;51.244;6.982;2023-02-02T09:03:36;38.05;;;14.50;;
18520;SDS011;9390;51.244;6.982;2023-02-02T09:06:09;44.58;;;14.63;;
18520;SDS011;9390;51.244;6.982;2023-02-02T09:08:42;31.02;;;13.32;;
18520;SDS011;9390;51.244;6.982;2023-02-02T09:11:14;40.22;;;14.57;;
18520;SDS011;9390;51.244;6.982;2023-02-02T09:13:52;30.23;;;13.25;;
18520;SDS011;9390;51.244;6.982;2023-02-02T09:16:25;39.67;;;12.75;;
18520;SDS011;9390;51.244;6.982;2023-02-02T09:18:57;34.70;;;13.30;;
18520;SDS011;9390;51.244;6.982;2023-02-02T09:21:29;39.53;;;12.95;;
18520;SDS011;9390;51.244;6.982;2023-02-02T09:24:06;42.50;;;12.98;;
18520;SDS011;9390;51.244;6.982;2023-02-02T09:26:39;36.67;;;12.35;;
18520;SDS011;9390;51.244;6.982;2023-02-02T09:29:13;39.92;;;13.65;;
18520;SDS011;9390;51.244;6.982;2023-02-02T09:31:46;36.78;;;12.15;;
18520;SDS011;9390;51.244;6.982;2023-02-02T09:34:18;39.35;;;12.82;;
18520;SDS011;9390;51.244;6.982;2023-02-02T09:36:49;45.00;;;13.30;;
18520;SDS011;9390;51.244;6.982;2023-02-02T09:39:21;43.60;;;13.93;;
18520;SDS011;9390;51.244;6.982;2023-02-02T09:41:56;39.33;;;14.35;;
18520;SDS011;9390;51.244;6.982;2023-02-02T09:44:47;51.95;;;15.73;;
18520;SDS011;9390;51.244;6.982;2023-02-02T09:53:18;39.80;;;13.82;;
18520;SDS011;9390;51.244;6.982;2023-02-02T09:55:53;37.97;;;14.82;;
18520;SDS011;9390;51.244;6.982;2023-02-02T09:58:27;36.10;;;13.27;;
18520;SDS011;9390;51.244;6.982;2023-02-02T10:01:03;41.08;;;13.40;;
18520;SDS011;9390;51.244;6.982;2023-02-02T10:03:39;45.95;;;14.48;;
18520;SDS011;9390;51.244;6.982;2023-02-02T10:06:25;39.95;;;13.95;;
18520;SDS011;9390;51.244;6.982;2023-02-02T10:09:02;43.42;;;14.07;;
18520;SDS011;9390;51.244;6.982;2023-02-02T10:11:40;41.30;;;14.68;;
18520;SDS011;9390;51.244;6.982;2023-02-02T10:14:18;54.40;;;15.50;;
18520;SDS011;9390;51.244;6.982;2023-02-02T10:16:53;46.85;;;16.33;;
18520;SDS011;9390;51.244;6.982;2023-02-02T10:19:25;44.00;;;14.40;;
18520;SDS011;9390;51.244;6.982;2023-02-02T10:22:01;43.45;;;17.65;;
18520;SDS011;9390;51.244;6.982;2023-02-02T10:24:35;55.70;;;15.48;;
18520;SDS011;9390;51.244;6.982;2023-02-02T10:27:07;46.63;;;14.60;;
18520;SDS011;9390;51.244;6.982;2023-02-02T10:29:46;46.13;;;15.05;;
18520;SDS011;9390;51.244;6.982;2023-02-02T10:32:21;43.65;;;14.80;;
18520;SDS011;9390;51.244;6.982;2023-02-02T10:34:59;49.15;;;15.95;;
18520;SDS011;9390;51.244;6.982;2023-02-02T10:37:39;44.15;;;14.57;;
18520;SDS011;9390;51.244;6.982;2023-02-02T10:40:14;41.22;;;15.35;;
18520;SDS011;9390;51.244;6.982;2023-02-02T10:42:55;41.60;;;14.00;;
18520;SDS011;9390;51.244;6.982;2023-02-02T10:46:03;45.08;;;14.18;;
18520;SDS011;9390;51.244;6.982;2023-02-02T10:48:36;48.35;;;14.90;;
18520;SDS011;9390;51.244;6.982;2023-02-02T10:51:10;34.72;;;13.90;;
18520;SDS011;9390;51.244;6.982;2023-02-02T10:53:45;48.28;;;13.05;;
18520;SDS011;9390;51.244;6.982;2023-02-02T10:56:21;33.83;;;13.70;;
18520;SDS011;9390;51.244;6.982;2023-02-02T10:58:57;53.92;;;16.27;;
18520;SDS011;9390;51.244;6.982;2023-02-02T11:01:31;45.00;;;13.65;;
18520;SDS011;9390;51.244;6.982;2023-02-02T11:04:04;50.78;;;12.98;;
18520;SDS011;9390;51.244;6.982;2023-02-02T11:06:53;39.95;;;13.35;;
18520;SDS011;9390;51.244;6.982;2023-02-02T11:09:27;45.05;;;12.68;;
18520;SDS011;9390;51.244;6.982;2023-02-02T11:12:02;47.10;;;13.45;;
18520;SDS011;9390;51.244;6.982;2023-02-02T11:14:36;49.10;;;12.88;;
18520;SDS011;9390;51.244;6.982;2023-02-02T11:17:16;33.38;;;11.10;;
18520;SDS011;9390;51.244;6.982;2023-02-02T11:19:51;32.35;;;11.55;;
18520;SDS011;9390;51.244;6.982;2023-02-02T11:22:26;41.20;;;12.80;;
18520;SDS011;9390;51.244;6.982;2023-02-02T11:25:02;47.65;;;11.82;;
18520;SDS011;9390;51.244;6.982;2023-02-02T11:27:37;53.63;;;13.73;;
18520;SDS011;9390;51.244;6.982;2023-02-02T11:30:11;33.97;;;12.35;;
18520;SDS011;9390;51.244;6.982;2023-02-02T11:32:48;40.78;;;11.00;;
18520;SDS011;9390;51.244;6.982;2023-02-02T11:35:22;38.83;;;11.38;;
18520;SDS011;9390;51.244;6.982;2023-02-02T11:37:58;34.65;;;10.82;;
18520;SDS011;9390;51.244;6.982;2023-02-02T11:40:38;32.17;;;10.40;;
18520;SDS011;9390;51.244;6.982;2023-02-02T11:43:16;30.50;;;9.65;;
18520;SDS011;9390;51.244;6.982;2023-02-02T11:45:52;35.35;;;9.45;;
18520;SDS011;9390;51.244;6.982;2023-02-02T11:48:26;37.28;;;10.63;;
18520;SDS011;9390;51.244;6.982;2023-02-02T11:51:01;42.05;;;10.23;;
18520;SDS011;9390;51.244;6.982;2023-02-02T11:53:34;47.05;;;11.40;;
18520;SDS011;9390;51.244;6.982;2023-02-02T11:56:08;27.83;;;10.98;;
18520;SDS011;9390;51.244;6.982;2023-02-02T11:58:42;32.42;;;9.85;;
18520;SDS011;9390;51.244;6.982;2023-02-02T12:03:52;30.23;;;10.10;;
18520;SDS011;9390;51.244;6.982;2023-02-02T12:06:32;28.80;;;9.43;;
18520;SDS011;9390;51.244;6.982;2023-02-02T12:09:09;33.53;;;9.02;;
18520;SDS011;9390;51.244;6.982;2023-02-02T12:11:44;29.25;;;9.18;;
18520;SDS011;9390;51.244;6.982;2023-02-02T12:14:27;32.15;;;10.02;;
18520;SDS011;9390;51.244;6.982;2023-02-02T12:17:15;37.85;;;10.90;;
18520;SDS011;9390;51.244;6.982;2023-02-02T12:19:56;30.23;;;10.05;;
18520;SDS011;9390;51.244;6.982;2023-02-02T12:22:43;29.58;;;10.88;;
18520;SDS011;9390;51.244;6.982;2023-02-02T12:25:38;28.88;;;12.00;;
18520;SDS011;9390;51.244;6.982;2023-02-02T12:28:26;30.67;;;10.48;;
18520;SDS011;9390;51.244;6.982;2023-02-02T12:31:04;35.33;;;9.88;;
18520;SDS011;9390;51.244;6.982;2023-02-02T12:33:40;33.80;;;10.38;;
18520;SDS011;9390;51.244;6.982;2023-02-02T12:36:22;37.20;;;10.07;;
18520;SDS011;9390;51.244;6.982;2023-02-02T12:39:06;34.17;;;9.90;;
18520;SDS011;9390;51.244;6.982;2023-02-02T12:41:44;32.63;;;10.15;;
18520;SDS011;9390;51.244;6.982;2023-02-02T12:44:25;34.13;;;9.82;;
18520;SDS011;9390;51.244;6.982;2023-02-02T12:47:07;22.10;;;8.77;;
18520;SDS011;9390;51.244;6.982;2023-02-02T12:49:49;24.00;;;8.75;;
18520;SDS011;9390;51.244;6.982;2023-02-02T12:52:40;36.42;;;9.27;;
18520;SDS011;9390;51.244;6.982;2023-02-02T12:55:21;41.83;;;11.10;;
18520;SDS011;9390;51.244;6.982;2023-02-02T12:57:55;24.10;;;9.80;;
18520;SDS011;9390;51.244;6.982;2023-02-02T13:00:47;29.92;;;8.90;;
18520;SDS011;9390;51.244;6.982;2023-02-02T13:03:30;29.85;;;9.98;;
18520;SDS011;9390;51.244;6.982;2023-02-02T13:06:11;33.45;;;9.68;;
18520;SDS011;9390;51.244;6.982;2023-02-02T13:08:55;27.77;;;9.93;;
18520;SDS011;9390;51.244;6.982;2023-02-02T13:11:34;31.65;;;9.70;;
18520;SDS011;9390;51.244;6.982;2023-02-02T13:14:08;27.40;;;10.10;;
18520;SDS011;9390;51.244;6.982;2023-02-02T13:16:43;26.95;;;9.70;;
18520;SDS011;9390;51.244;6.982;2023-02-02T13:19:20;30.63;;;10.32;;
18520;SDS011;9390;51.244;6.982;2023-02-02T13:21:57;28.38;;;9.65;;
18520;SDS011;9390;51.244;6.982;2023-02-02T13:24:30;28.75;;;9.88;;
18520;SDS011;9390;51.244;6.982;2023-02-02T13:27:05;27.90;;;10.68;;
18520;SDS011;9390;51.244;6.982;2023-02-02T13:29:38;37.38;;;12.73;;
18520;SDS011;9390;51.244;6.982;2023-02-02T13:32:14;36.50;;;11.70;;
18520;SDS011;9390;51.244;6.982;2023-02-02T13:34:49;36.50;;;11.85;;
18520;SDS011;9390;51.244;6.982;2023-02-02T13:37:24;33.22;;;11.95;;
18520;SDS011;9390;51.244;6.982;2023-02-02T13:39:59;37.05;;;13.07;;
18520;SDS011;9390;51.244;6.982;2023-02-02T13:42:37;31.85;;;12.20;;
18520;SDS011;9390;51.244;6.982;2023-02-02T13:45:30;30.70;;;12.70;;
18520;SDS011;9390;51.244;6.982;2023-02-02T13:48:13;36.72;;;13.82;;
18520;SDS011;9390;51.244;6.982;2023-02-02T13:50:53;38.45;;;14.07;;
18520;SDS011;9390;51.244;6.982;2023-02-02T13:53:38;36.85;;;13.25;;
18520;SDS011;9390;51.244;6.982;2023-02-02T13:56:26;37.78;;;14.55;;
18520;SDS011;9390;51.244;6.982;2023-02-02T13:59:12;38.15;;;14.52;;
18520;SDS011;9390;51.244;6.982;2023-02-02T14:01:53;36.40;;;14.27;;
18520;SDS011;9390;51.244;6.982;2023-02-02T14:04:28;37.10;;;13.73;;
18520;SDS011;9390;51.244;6.982;2023-02-02T14:07:01;37.63;;;13.77;;
18520;SDS011;9390;51.244;6.982;2023-02-02T14:09:34;38.70;;;14.63;;
18520;SDS011;9390;51.244;6.982;2023-02-02T14:12:08;43.72;;;15.63;;
18520;SDS011;9390;51.244;6.982;2023-02-02T14:14:44;42.08;;;16.92;;
18520;SDS011;9390;51.244;6.982;2023-02-02T14:20:44;44.17;;;16.65;;
18520;SDS011;9390;51.244;6.982;2023-02-02T14:32:29;49.50;;;18.38;;
18520;SDS011;9390;51.244;6.982;2023-02-02T14:38:08;47.40;;;16.95;;
18520;SDS011;9390;51.244;6.982;2023-02-02T14:40:45;52.17;;;16.65;;
18520;SDS011;9390;51.244;6.982;2023-02-02T14:43:21;45.65;;;18.20;;
18520;SDS011;9390;51.244;6.982;2023-02-02T14:49:10;42.63;;;16.38;;
18520;SDS011;9390;51.244;6.982;2023-02-02T14:51:45;38.72;;;17.48;;
18520;SDS011;9390;51.244;6.982;2023-02-02T14:54:21;47.60;;;17.73;;
18520;SDS011;9390;51.244;6.982;2023-02-02T14:56:55;47.80;;;18.55;;
18520;SDS011;9390;51.244;6.982;2023-02-02T14:59:30;43.85;;;16.52;;
18520;SDS011;9390;51.244;6.982;2023-02-02T15:02:11;43.63;;;17.77;;
18520;SDS011;9390;51.244;6.982;2023-02-02T15:04:49;47.40;;;17.67;;
18520;SDS011;9390;51.244;6.982;2023-02-02T15:07:36;41.83;;;17.70;;
18520;SDS011;9390;51.244;6.982;2023-02-02T15:13:27;43.97;;;17.58;;
18520;SDS011;9390;51.244;6.982;2023-02-02T15:16:09;38.15;;;16.00;;
18520;SDS011;9390;51.244;6.982;2023-02-02T15:18:43;44.95;;;17.17;;
18520;SDS011;9390;51.244;6.982;2023-02-02T15:21:17;45.05;;;17.52;;
18520;SDS011;9390;51.244;6.982;2023-02-02T15:23:51;42.90;;;17.48;;
18520;SDS011;9390;51.244;6.982;2023-02-02T15:26:23;41.03;;;17.42;;
18520;SDS011;9390;51.244;6.982;2023-02-02T15:28:57;47.35;;;18.23;;
18520;SDS011;9390;51.244;6.982;2023-02-02T15:31:31;39.65;;;16.20;;
18520;SDS011;9390;51.244;6.982;2023-02-02T15:34:08;42.05;;;17.15;;
18520;SDS011;9390;51.244;6.982;2023-02-02T15:36:43;50.20;;;18.65;;
18520;SDS011;9390;51.244;6.982;2023-02-02T15:39:19;37.45;;;17.20;;
18520;SDS011;9390;51.244;6.982;2023-02-02T15:41:56;48.88;;;17.33;;
18520;SDS011;9390;51.244;6.982;2023-02-02T15:44:47;46.13;;;17.20;;
18520;SDS011;9390;51.244;6.982;2023-02-02T15:47:19;42.00;;;18.60;;
18520;SDS011;9390;51.244;6.982;2023-02-02T15:49:54;48.75;;;19.05;;
18520;SDS011;9390;51.244;6.982;2023-02-02T15:52:28;35.67;;;17.25;;
18520;SDS011;9390;51.244;6.982;2023-02-02T15:55:11;37.20;;;17.02;;
18520;SDS011;9390;51.244;6.982;2023-02-02T15:57:50;42.95;;;18.92;;
18520;SDS011;9390;51.244;6.982;2023-02-02T16:00:25;46.72;;;18.10;;
18520;SDS011;9390;51.244;6.982;2023-02-02T16:02:59;40.53;;;18.05;;
18520;SDS011;9390;51.244;6.982;2023-02-02T16:05:39;42.85;;;18.05;;
18520;SDS011;9390;51.244;6.982;2023-02-02T16:08:16;52.60;;;19.30;;
18520;SDS011;9390;51.244;6.982;2023-02-02T16:10:49;43.65;;;18.50;;
18520;SDS011;9390;51.244;6.982;2023-02-02T16:13:22;46.47;;;18.88;;
18520;SDS011;9390;51.244;6.982;2023-02-02T16:15:56;45.65;;;19.60;;
18520;SDS011;9390;51.244;6.982;2023-02-02T16:18:29;49.17;;;19.83;;
18520;SDS011;9390;51.244;6.982;2023-02-02T16:21:01;52.90;;;19.35;;
18520;SDS011;9390;51.244;6.982;2023-02-02T16:23:38;40.83;;;18.85;;
18520;SDS011;9390;51.244;6.982;2023-02-02T16:26:10;49.88;;;20.42;;
18520;SDS011;9390;51.244;6.982;2023-02-02T16:28:45;55.50;;;19.88;;
18520;SDS011;9390;51.244;6.982;2023-02-02T16:31:16;49.75;;;20.67;;
18520;SDS011;9390;51.244;6.982;2023-02-02T16:33:48;41.03;;;19.08;;